sensor_id;sensor_type;location;lat;lon;timestamp;P1;durP1;ratioP1;P2;durP2;ratioP2
57832;SDS011;43667;53.036;6.740;2023-05-14T00:00:47;22.90;;;14.65;;
57832;SDS011;43667;53.036;6.740;2023-05-14T00:03:13;20.15;;;13.65;;
57832;SDS011;43667;53.036;6.740;2023-05-14T00:05:38;22.00;;;13.95;;
57832;SDS011;43667;53.036;6.740;2023-05-14T00:08:04;19.33;;;13.48;;
57832;SDS011;43667;53.036;6.740;2023-05-14T00:10:30;17.73;;;14.13;;
57832;SDS011;43667;53.036;6.740;2023-05-14T00:12:56;23.00;;;14.77;;
57832;SDS011;43667;53.036;6.740;2023-05-14T00:15:21;22.02;;;14.68;;
57832;SDS011;43667;53.036;6.740;2023-05-14T00:17:47;17.23;;;13.15;;
57832;SDS011;43667;53.036;6.740;2023-05-14T00:20:13;21.15;;;14.15;;
57832;SDS011;43667;53.036;6.740;2023-05-14T00:22:39;21.63;;;13.07;;
57832;SDS011;43667;53.036;6.740;2023-05-14T00:25:05;18.23;;;14.15;;
57832;SDS011;43667;53.036;6.740;2023-05-14T00:27:31;22.15;;;14.82;;
57832;SDS011;43667;53.036;6.740;2023-05-14T00:29:58;25.08;;;13.57;;
57832;SDS011;43667;53.036;6.740;2023-05-14T00:32:23;17.92;;;14.55;;
57832;SDS011;43667;53.036;6.740;2023-05-14T00:34:49;18.25;;;14.18;;
57832;SDS011;43667;53.036;6.740;2023-05-14T00:37:15;20.80;;;15.27;;
57832;SDS011;43667;53.036;6.740;2023-05-14T00:39:40;23.23;;;14.25;;
57832;SDS011;43667;53.036;6.740;2023-05-14T00:42:06;23.40;;;15.60;;
57832;SDS011;43667;53.036;6.740;2023-05-14T00:44:32;20.40;;;15.20;;
57832;SDS011;43667;53.036;6.740;2023-05-14T00:46:57;22.38;;;15.65;;
57832;SDS011;43667;53.036;6.740;2023-05-14T00:49:24;18.75;;;15.25;;
57832;SDS011;43667;53.036;6.740;2023-05-14T00:51:50;25.00;;;15.65;;
57832;SDS011;43667;53.036;6.740;2023-05-14T00:54:16;25.08;;;16.70;;
57832;SDS011;43667;53.036;6.740;2023-05-14T00:56:46;21.35;;;14.90;;
57832;SDS011;43667;53.036;6.740;2023-05-14T00:59:12;16.20;;;13.43;;
57832;SDS011;43667;53.036;6.740;2023-05-14T01:01:38;28.27;;;15.43;;
57832;SDS011;43667;53.036;6.740;2023-05-14T01:04:04;19.50;;;14.98;;
57832;SDS011;43667;53.036;6.740;2023-05-14T01:09:22;21.08;;;16.08;;
57832;SDS011;43667;53.036;6.740;2023-05-14T01:12:16;21.08;;;15.95;;
57832;SDS011;43667;53.036;6.740;2023-05-14T01:17:31;24.33;;;17.05;;
57832;SDS011;43667;53.036;6.740;2023-05-14T01:19:59;22.15;;;16.45;;
57832;SDS011;43667;53.036;6.740;2023-05-14T01:22:26;22.63;;;14.50;;
57832;SDS011;43667;53.036;6.740;2023-05-14T01:24:51;30.02;;;16.80;;
57832;SDS011;43667;53.036;6.740;2023-05-14T01:27:21;16.20;;;13.07;;
57832;SDS011;43667;53.036;6.740;2023-05-14T01:30:13;27.13;;;15.30;;
57832;SDS011;43667;53.036;6.740;2023-05-14T01:32:50;19.38;;;14.88;;
57832;SDS011;43667;53.036;6.740;2023-05-14T01:35:19;21.27;;;15.35;;
57832;SDS011;43667;53.036;6.740;2023-05-14T01:37:47;23.67;;;15.30;;
57832;SDS011;43667;53.036;6.740;2023-05-14T01:40:14;20.23;;;14.55;;
57832;SDS011;43667;53.036;6.740;2023-05-14T01:42:40;21.58;;;15.73;;
57832;SDS011;43667;53.036;6.740;2023-05-14T01:45:07;21.60;;;16.83;;
57832;SDS011;43667;53.036;6.740;2023-05-14T01:47:33;23.67;;;16.48;;
57832;SDS011;43667;53.036;6.740;2023-05-14T01:49:58;22.35;;;16.40;;
57832;SDS011;43667;53.036;6.740;2023-05-14T01:52:24;23.58;;;16.85;;
57832;SDS011;43667;53.036;6.740;2023-05-14T01:54:49;25.75;;;15.98;;
57832;SDS011;43667;53.036;6.740;2023-05-14T01:57:15;22.52;;;15.82;;
57832;SDS011;43667;53.036;6.740;2023-05-14T01:59:41;20.17;;;17.13;;
57832;SDS011;43667;53.036;6.740;2023-05-14T02:02:06;18.40;;;14.50;;
57832;SDS011;43667;53.036;6.740;2023-05-14T02:04:32;21.23;;;17.52;;
57832;SDS011;43667;53.036;6.740;2023-05-14T02:06:57;22.08;;;14.25;;
57832;SDS011;43667;53.036;6.740;2023-05-14T02:09:23;18.40;;;12.90;;
57832;SDS011;43667;53.036;6.740;2023-05-14T02:11:48;19.27;;;13.02;;
57832;SDS011;43667;53.036;6.740;2023-05-14T02:14:14;15.05;;;12.32;;
57832;SDS011;43667;53.036;6.740;2023-05-14T02:16:40;18.13;;;12.10;;
57832;SDS011;43667;53.036;6.740;2023-05-14T02:19:07;20.13;;;14.18;;
57832;SDS011;43667;53.036;6.740;2023-05-14T02:21:33;21.17;;;14.05;;
57832;SDS011;43667;53.036;6.740;2023-05-14T02:23:59;22.63;;;13.35;;
57832;SDS011;43667;53.036;6.740;2023-05-14T02:26:25;15.93;;;12.15;;
57832;SDS011;43667;53.036;6.740;2023-05-14T02:28:50;19.90;;;13.05;;
57832;SDS011;43667;53.036;6.740;2023-05-14T02:31:16;20.80;;;14.43;;
57832;SDS011;43667;53.036;6.740;2023-05-14T02:33:43;17.92;;;13.77;;
57832;SDS011;43667;53.036;6.740;2023-05-14T02:36:09;20.50;;;13.50;;
57832;SDS011;43667;53.036;6.740;2023-05-14T02:38:35;23.30;;;15.55;;
57832;SDS011;43667;53.036;6.740;2023-05-14T02:41:01;18.52;;;15.82;;
57832;SDS011;43667;53.036;6.740;2023-05-14T02:43:27;20.10;;;14.88;;
57832;SDS011;43667;53.036;6.740;2023-05-14T02:45:56;24.23;;;15.85;;
57832;SDS011;43667;53.036;6.740;2023-05-14T02:48:22;24.60;;;16.95;;
57832;SDS011;43667;53.036;6.740;2023-05-14T02:50:49;22.05;;;15.65;;
57832;SDS011;43667;53.036;6.740;2023-05-14T02:53:18;24.98;;;15.80;;
57832;SDS011;43667;53.036;6.740;2023-05-14T02:55:44;26.92;;;15.18;;
57832;SDS011;43667;53.036;6.740;2023-05-14T02:58:10;23.33;;;15.77;;
57832;SDS011;43667;53.036;6.740;2023-05-14T03:00:36;25.55;;;15.30;;
57832;SDS011;43667;53.036;6.740;2023-05-14T03:03:02;16.80;;;11.88;;
57832;SDS011;43667;53.036;6.740;2023-05-14T03:05:28;19.00;;;11.98;;
57832;SDS011;43667;53.036;6.740;2023-05-14T03:07:54;23.48;;;14.10;;
57832;SDS011;43667;53.036;6.740;2023-05-14T03:10:20;22.23;;;13.40;;
57832;SDS011;43667;53.036;6.740;2023-05-14T03:12:46;24.45;;;16.02;;
57832;SDS011;43667;53.036;6.740;2023-05-14T03:15:12;25.05;;;16.10;;
57832;SDS011;43667;53.036;6.740;2023-05-14T03:17:38;16.33;;;11.13;;
57832;SDS011;43667;53.036;6.740;2023-05-14T03:20:04;19.25;;;13.10;;
57832;SDS011;43667;53.036;6.740;2023-05-14T03:22:30;16.67;;;12.85;;
57832;SDS011;43667;53.036;6.740;2023-05-14T03:24:56;20.17;;;14.00;;
57832;SDS011;43667;53.036;6.740;2023-05-14T03:27:22;25.85;;;16.67;;
57832;SDS011;43667;53.036;6.740;2023-05-14T03:29:48;22.80;;;13.60;;
57832;SDS011;43667;53.036;6.740;2023-05-14T03:32:14;19.35;;;13.60;;
57832;SDS011;43667;53.036;6.740;2023-05-14T03:34:39;27.63;;;16.05;;
57832;SDS011;43667;53.036;6.740;2023-05-14T03:37:05;22.90;;;14.75;;
57832;SDS011;43667;53.036;6.740;2023-05-14T03:39:31;23.83;;;15.35;;
57832;SDS011;43667;53.036;6.740;2023-05-14T03:41:56;21.20;;;14.70;;
57832;SDS011;43667;53.036;6.740;2023-05-14T03:44:23;21.92;;;14.45;;
57832;SDS011;43667;53.036;6.740;2023-05-14T03:46:49;14.75;;;12.10;;
57832;SDS011;43667;53.036;6.740;2023-05-14T03:49:14;22.20;;;12.25;;
57832;SDS011;43667;53.036;6.740;2023-05-14T03:51:40;17.60;;;12.68;;
57832;SDS011;43667;53.036;6.740;2023-05-14T03:54:05;16.17;;;12.25;;
57832;SDS011;43667;53.036;6.740;2023-05-14T03:56:31;19.30;;;13.18;;
57832;SDS011;43667;53.036;6.740;2023-05-14T03:58:57;21.60;;;12.40;;
57832;SDS011;43667;53.036;6.740;2023-05-14T04:01:22;18.35;;;13.35;;
57832;SDS011;43667;53.036;6.740;2023-05-14T04:03:48;13.20;;;10.48;;
57832;SDS011;43667;53.036;6.740;2023-05-14T04:06:13;21.20;;;13.75;;
57832;SDS011;43667;53.036;6.740;2023-05-14T04:08:39;17.25;;;11.50;;
57832;SDS011;43667;53.036;6.740;2023-05-14T04:11:07;18.83;;;12.13;;
57832;SDS011;43667;53.036;6.740;2023-05-14T04:13:33;15.93;;;11.27;;
57832;SDS011;43667;53.036;6.740;2023-05-14T04:15:59;18.58;;;10.63;;
57832;SDS011;43667;53.036;6.740;2023-05-14T04:18:24;15.38;;;11.52;;
57832;SDS011;43667;53.036;6.740;2023-05-14T04:20:50;18.25;;;11.45;;
57832;SDS011;43667;53.036;6.740;2023-05-14T04:23:16;19.45;;;12.35;;
57832;SDS011;43667;53.036;6.740;2023-05-14T04:25:41;19.05;;;12.90;;
57832;SDS011;43667;53.036;6.740;2023-05-14T04:28:07;17.80;;;13.13;;
57832;SDS011;43667;53.036;6.740;2023-05-14T04:30:32;18.63;;;12.45;;
57832;SDS011;43667;53.036;6.740;2023-05-14T04:32:58;17.27;;;13.18;;
57832;SDS011;43667;53.036;6.740;2023-05-14T04:35:23;24.20;;;14.10;;
57832;SDS011;43667;53.036;6.740;2023-05-14T04:37:49;21.33;;;14.27;;
57832;SDS011;43667;53.036;6.740;2023-05-14T04:40:15;19.55;;;14.32;;
57832;SDS011;43667;53.036;6.740;2023-05-14T04:42:41;21.42;;;14.07;;
57832;SDS011;43667;53.036;6.740;2023-05-14T04:45:06;17.67;;;13.68;;
57832;SDS011;43667;53.036;6.740;2023-05-14T04:47:32;20.15;;;13.90;;
57832;SDS011;43667;53.036;6.740;2023-05-14T04:49:58;17.38;;;12.25;;
57832;SDS011;43667;53.036;6.740;2023-05-14T04:52:24;15.55;;;13.15;;
57832;SDS011;43667;53.036;6.740;2023-05-14T04:54:50;20.77;;;13.63;;
57832;SDS011;43667;53.036;6.740;2023-05-14T04:57:16;18.30;;;14.77;;
57832;SDS011;43667;53.036;6.740;2023-05-14T04:59:42;17.92;;;13.23;;
57832;SDS011;43667;53.036;6.740;2023-05-14T05:02:08;14.02;;;11.57;;
57832;SDS011;43667;53.036;6.740;2023-05-14T05:04:35;21.17;;;14.60;;
57832;SDS011;43667;53.036;6.740;2023-05-14T05:07:01;24.63;;;13.70;;
57832;SDS011;43667;53.036;6.740;2023-05-14T05:09:27;24.98;;;15.38;;
57832;SDS011;43667;53.036;6.740;2023-05-14T05:11:52;25.35;;;14.93;;
57832;SDS011;43667;53.036;6.740;2023-05-14T05:14:18;24.92;;;15.02;;
57832;SDS011;43667;53.036;6.740;2023-05-14T05:16:43;18.77;;;12.00;;
57832;SDS011;43667;53.036;6.740;2023-05-14T05:19:09;19.58;;;13.30;;
57832;SDS011;43667;53.036;6.740;2023-05-14T05:21:35;25.05;;;15.15;;
57832;SDS011;43667;53.036;6.740;2023-05-14T05:24:03;22.40;;;13.88;;
57832;SDS011;43667;53.036;6.740;2023-05-14T05:26:29;28.00;;;16.02;;
57832;SDS011;43667;53.036;6.740;2023-05-14T05:28:55;24.63;;;13.63;;
57832;SDS011;43667;53.036;6.740;2023-05-14T05:31:21;28.63;;;15.20;;
57832;SDS011;43667;53.036;6.740;2023-05-14T05:33:46;23.75;;;14.75;;
57832;SDS011;43667;53.036;6.740;2023-05-14T05:36:12;19.73;;;13.60;;
57832;SDS011;43667;53.036;6.740;2023-05-14T05:38:38;31.38;;;15.25;;
57832;SDS011;43667;53.036;6.740;2023-05-14T05:41:03;31.73;;;16.45;;
57832;SDS011;43667;53.036;6.740;2023-05-14T05:43:29;24.92;;;13.18;;
57832;SDS011;43667;53.036;6.740;2023-05-14T05:45:58;31.30;;;15.50;;
57832;SDS011;43667;53.036;6.740;2023-05-14T05:48:24;29.77;;;15.15;;
57832;SDS011;43667;53.036;6.740;2023-05-14T05:50:50;25.02;;;13.38;;
57832;SDS011;43667;53.036;6.740;2023-05-14T05:53:16;29.13;;;14.02;;
57832;SDS011;43667;53.036;6.740;2023-05-14T05:55:42;27.88;;;14.65;;
57832;SDS011;43667;53.036;6.740;2023-05-14T05:58:08;26.02;;;12.30;;
57832;SDS011;43667;53.036;6.740;2023-05-14T06:00:33;30.73;;;11.73;;
57832;SDS011;43667;53.036;6.740;2023-05-14T06:02:59;19.88;;;12.10;;
57832;SDS011;43667;53.036;6.740;2023-05-14T06:05:25;28.83;;;12.77;;
57832;SDS011;43667;53.036;6.740;2023-05-14T06:07:50;22.00;;;11.15;;
57832;SDS011;43667;53.036;6.740;2023-05-14T06:10:17;19.75;;;9.90;;
57832;SDS011;43667;53.036;6.740;2023-05-14T06:12:43;23.10;;;9.60;;
57832;SDS011;43667;53.036;6.740;2023-05-14T06:15:09;21.98;;;9.23;;
57832;SDS011;43667;53.036;6.740;2023-05-14T06:17:36;17.67;;;9.00;;
57832;SDS011;43667;53.036;6.740;2023-05-14T06:20:02;17.30;;;7.85;;
57832;SDS011;43667;53.036;6.740;2023-05-14T06:22:29;19.55;;;7.70;;
57832;SDS011;43667;53.036;6.740;2023-05-14T06:24:55;19.33;;;7.40;;
57832;SDS011;43667;53.036;6.740;2023-05-14T06:27:21;17.63;;;8.55;;
57832;SDS011;43667;53.036;6.740;2023-05-14T06:29:46;15.70;;;7.38;;
57832;SDS011;43667;53.036;6.740;2023-05-14T06:32:12;21.55;;;8.10;;
57832;SDS011;43667;53.036;6.740;2023-05-14T06:34:39;15.70;;;7.30;;
57832;SDS011;43667;53.036;6.740;2023-05-14T06:37:06;16.73;;;7.40;;
57832;SDS011;43667;53.036;6.740;2023-05-14T06:39:36;16.77;;;7.45;;
57832;SDS011;43667;53.036;6.740;2023-05-14T06:42:02;17.48;;;7.40;;
57832;SDS011;43667;53.036;6.740;2023-05-14T06:44:28;21.55;;;6.95;;
57832;SDS011;43667;53.036;6.740;2023-05-14T06:46:53;17.13;;;7.10;;
57832;SDS011;43667;53.036;6.740;2023-05-14T06:49:19;18.65;;;6.88;;
57832;SDS011;43667;53.036;6.740;2023-05-14T06:51:45;17.08;;;6.47;;
57832;SDS011;43667;53.036;6.740;2023-05-14T06:54:11;18.35;;;6.45;;
57832;SDS011;43667;53.036;6.740;2023-05-14T06:56:36;18.73;;;7.43;;
57832;SDS011;43667;53.036;6.740;2023-05-14T06:59:02;17.40;;;6.75;;
57832;SDS011;43667;53.036;6.740;2023-05-14T07:01:28;16.33;;;6.80;;
57832;SDS011;43667;53.036;6.740;2023-05-14T07:03:54;19.63;;;6.47;;
57832;SDS011;43667;53.036;6.740;2023-05-14T07:06:20;18.67;;;6.07;;
57832;SDS011;43667;53.036;6.740;2023-05-14T07:08:46;14.93;;;5.65;;
57832;SDS011;43667;53.036;6.740;2023-05-14T07:11:12;17.33;;;6.43;;
57832;SDS011;43667;53.036;6.740;2023-05-14T07:13:38;18.48;;;6.50;;
57832;SDS011;43667;53.036;6.740;2023-05-14T07:16:05;19.73;;;6.82;;
57832;SDS011;43667;53.036;6.740;2023-05-14T07:18:31;19.48;;;5.70;;
57832;SDS011;43667;53.036;6.740;2023-05-14T07:20:57;14.38;;;5.63;;
57832;SDS011;43667;53.036;6.740;2023-05-14T07:23:22;15.93;;;6.32;;
57832;SDS011;43667;53.036;6.740;2023-05-14T07:25:48;15.27;;;5.60;;
57832;SDS011;43667;53.036;6.740;2023-05-14T07:28:13;13.52;;;6.03;;
57832;SDS011;43667;53.036;6.740;2023-05-14T07:30:39;16.95;;;5.47;;
57832;SDS011;43667;53.036;6.740;2023-05-14T07:33:04;15.50;;;5.00;;
57832;SDS011;43667;53.036;6.740;2023-05-14T07:35:30;15.02;;;5.45;;
57832;SDS011;43667;53.036;6.740;2023-05-14T07:37:58;17.80;;;6.47;;
57832;SDS011;43667;53.036;6.740;2023-05-14T07:40:24;13.70;;;5.78;;
57832;SDS011;43667;53.036;6.740;2023-05-14T07:42:50;16.90;;;5.68;;
57832;SDS011;43667;53.036;6.740;2023-05-14T07:45:16;15.85;;;5.72;;
57832;SDS011;43667;53.036;6.740;2023-05-14T07:47:42;18.45;;;5.78;;
57832;SDS011;43667;53.036;6.740;2023-05-14T07:50:08;14.57;;;5.30;;
57832;SDS011;43667;53.036;6.740;2023-05-14T07:52:34;10.40;;;4.78;;
57832;SDS011;43667;53.036;6.740;2023-05-14T07:55:01;12.90;;;5.40;;
57832;SDS011;43667;53.036;6.740;2023-05-14T07:57:27;12.65;;;5.65;;
57832;SDS011;43667;53.036;6.740;2023-05-14T07:59:53;13.07;;;4.68;;
57832;SDS011;43667;53.036;6.740;2023-05-14T08:02:19;13.60;;;4.93;;
57832;SDS011;43667;53.036;6.740;2023-05-14T08:04:45;12.68;;;4.60;;
57832;SDS011;43667;53.036;6.740;2023-05-14T08:07:11;12.50;;;5.43;;
57832;SDS011;43667;53.036;6.740;2023-05-14T08:09:37;12.73;;;4.80;;
57832;SDS011;43667;53.036;6.740;2023-05-14T08:12:04;12.32;;;5.40;;
57832;SDS011;43667;53.036;6.740;2023-05-14T08:14:30;12.35;;;4.45;;
57832;SDS011;43667;53.036;6.740;2023-05-14T08:16:56;16.63;;;5.75;;
57832;SDS011;43667;53.036;6.740;2023-05-14T08:19:22;12.57;;;4.32;;
57832;SDS011;43667;53.036;6.740;2023-05-14T08:21:48;12.50;;;4.85;;
57832;SDS011;43667;53.036;6.740;2023-05-14T08:24:15;10.70;;;4.13;;
57832;SDS011;43667;53.036;6.740;2023-05-14T08:26:41;13.02;;;5.20;;
57832;SDS011;43667;53.036;6.740;2023-05-14T08:29:07;13.90;;;4.80;;
57832;SDS011;43667;53.036;6.740;2023-05-14T08:31:33;10.90;;;4.80;;
57832;SDS011;43667;53.036;6.740;2023-05-14T08:33:59;10.45;;;4.75;;
57832;SDS011;43667;53.036;6.740;2023-05-14T08:36:25;13.23;;;4.30;;
57832;SDS011;43667;53.036;6.740;2023-05-14T08:38:51;14.45;;;4.90;;
57832;SDS011;43667;53.036;6.740;2023-05-14T08:41:17;8.52;;;4.22;;
57832;SDS011;43667;53.036;6.740;2023-05-14T08:43:46;8.77;;;4.05;;
57832;SDS011;43667;53.036;6.740;2023-05-14T08:46:16;10.87;;;4.50;;
57832;SDS011;43667;53.036;6.740;2023-05-14T08:48:42;10.80;;;4.45;;
57832;SDS011;43667;53.036;6.740;2023-05-14T08:51:11;11.13;;;3.80;;
57832;SDS011;43667;53.036;6.740;2023-05-14T08:53:37;8.95;;;3.35;;
57832;SDS011;43667;53.036;6.740;2023-05-14T08:56:05;10.45;;;3.90;;
57832;SDS011;43667;53.036;6.740;2023-05-14T08:58:31;12.43;;;4.28;;
57832;SDS011;43667;53.036;6.740;2023-05-14T09:00:58;10.23;;;4.75;;
57832;SDS011;43667;53.036;6.740;2023-05-14T09:03:24;11.10;;;5.43;;
57832;SDS011;43667;53.036;6.740;2023-05-14T09:05:50;13.73;;;5.25;;
57832;SDS011;43667;53.036;6.740;2023-05-14T09:08:16;14.40;;;5.50;;
57832;SDS011;43667;53.036;6.740;2023-05-14T09:10:42;13.10;;;5.50;;
57832;SDS011;43667;53.036;6.740;2023-05-14T09:13:08;8.68;;;4.97;;
57832;SDS011;43667;53.036;6.740;2023-05-14T09:15:36;12.45;;;5.30;;
57832;SDS011;43667;53.036;6.740;2023-05-14T09:18:05;15.27;;;5.95;;
57832;SDS011;43667;53.036;6.740;2023-05-14T09:20:31;10.93;;;4.65;;
57832;SDS011;43667;53.036;6.740;2023-05-14T09:22:57;16.05;;;5.95;;
57832;SDS011;43667;53.036;6.740;2023-05-14T09:25:29;15.70;;;5.88;;
57832;SDS011;43667;53.036;6.740;2023-05-14T09:27:56;12.27;;;5.15;;
57832;SDS011;43667;53.036;6.740;2023-05-14T09:30:23;12.70;;;4.72;;
57832;SDS011;43667;53.036;6.740;2023-05-14T09:32:49;7.63;;;4.75;;
57832;SDS011;43667;53.036;6.740;2023-05-14T09:35:18;12.18;;;5.18;;
57832;SDS011;43667;53.036;6.740;2023-05-14T09:37:45;9.57;;;4.75;;
57832;SDS011;43667;53.036;6.740;2023-05-14T09:40:12;9.35;;;4.70;;
57832;SDS011;43667;53.036;6.740;2023-05-14T09:42:38;11.50;;;5.03;;
57832;SDS011;43667;53.036;6.740;2023-05-14T09:45:05;9.07;;;5.93;;
57832;SDS011;43667;53.036;6.740;2023-05-14T09:47:32;8.90;;;5.18;;
57832;SDS011;43667;53.036;6.740;2023-05-14T09:49:58;8.40;;;5.03;;
57832;SDS011;43667;53.036;6.740;2023-05-14T09:52:24;12.73;;;4.95;;
57832;SDS011;43667;53.036;6.740;2023-05-14T09:54:53;12.23;;;5.72;;
57832;SDS011;43667;53.036;6.740;2023-05-14T09:57:19;7.78;;;5.35;;
57832;SDS011;43667;53.036;6.740;2023-05-14T09:59:45;12.95;;;5.72;;
57832;SDS011;43667;53.036;6.740;2023-05-14T10:02:15;10.18;;;4.95;;
57832;SDS011;43667;53.036;6.740;2023-05-14T10:04:47;8.55;;;5.35;;
57832;SDS011;43667;53.036;6.740;2023-05-14T10:07:13;12.45;;;5.47;;
57832;SDS011;43667;53.036;6.740;2023-05-14T10:09:40;10.05;;;4.90;;
57832;SDS011;43667;53.036;6.740;2023-05-14T10:12:07;9.63;;;4.63;;
57832;SDS011;43667;53.036;6.740;2023-05-14T10:14:37;8.65;;;3.50;;
57832;SDS011;43667;53.036;6.740;2023-05-14T10:17:05;8.77;;;3.13;;
57832;SDS011;43667;53.036;6.740;2023-05-14T10:19:33;6.95;;;3.47;;
57832;SDS011;43667;53.036;6.740;2023-05-14T10:22:05;10.50;;;3.90;;
57832;SDS011;43667;53.036;6.740;2023-05-14T10:24:31;9.32;;;4.10;;
57832;SDS011;43667;53.036;6.740;2023-05-14T10:26:58;5.60;;;3.05;;
57832;SDS011;43667;53.036;6.740;2023-05-14T10:29:34;5.75;;;2.90;;
57832;SDS011;43667;53.036;6.740;2023-05-14T10:32:04;6.40;;;3.47;;
57832;SDS011;43667;53.036;6.740;2023-05-14T10:34:31;8.00;;;3.25;;
57832;SDS011;43667;53.036;6.740;2023-05-14T10:36:59;5.18;;;2.85;;
57832;SDS011;43667;53.036;6.740;2023-05-14T10:39:42;7.50;;;3.50;;
57832;SDS011;43667;53.036;6.740;2023-05-14T10:42:28;9.07;;;3.45;;
57832;SDS011;43667;53.036;6.740;2023-05-14T10:45:01;5.82;;;2.88;;
57832;SDS011;43667;53.036;6.740;2023-05-14T10:47:30;5.35;;;2.90;;
57832;SDS011;43667;53.036;6.740;2023-05-14T10:49:57;8.80;;;2.47;;
57832;SDS011;43667;53.036;6.740;2023-05-14T10:52:23;6.97;;;2.60;;
57832;SDS011;43667;53.036;6.740;2023-05-14T10:54:54;4.32;;;2.20;;
57832;SDS011;43667;53.036;6.740;2023-05-14T10:57:20;11.38;;;3.30;;
57832;SDS011;43667;53.036;6.740;2023-05-14T10:59:47;4.35;;;2.70;;
57832;SDS011;43667;53.036;6.740;2023-05-14T11:02:25;7.00;;;2.47;;
57832;SDS011;43667;53.036;6.740;2023-05-14T11:07:24;7.57;;;2.58;;
57832;SDS011;43667;53.036;6.740;2023-05-14T11:09:52;8.65;;;2.83;;
57832;SDS011;43667;53.036;6.740;2023-05-14T11:12:18;5.88;;;2.50;;
57832;SDS011;43667;53.036;6.740;2023-05-14T11:14:47;4.05;;;2.25;;
57832;SDS011;43667;53.036;6.740;2023-05-14T11:17:13;8.30;;;2.75;;
57832;SDS011;43667;53.036;6.740;2023-05-14T11:19:41;7.07;;;3.13;;
57832;SDS011;43667;53.036;6.740;2023-05-14T11:22:08;6.20;;;2.60;;
57832;SDS011;43667;53.036;6.740;2023-05-14T11:24:33;5.35;;;2.28;;
57832;SDS011;43667;53.036;6.740;2023-05-14T11:26:59;3.85;;;2.28;;
57832;SDS011;43667;53.036;6.740;2023-05-14T11:29:25;10.52;;;2.55;;
57832;SDS011;43667;53.036;6.740;2023-05-14T11:31:51;6.78;;;2.33;;
57832;SDS011;43667;53.036;6.740;2023-05-14T11:34:19;6.00;;;2.47;;
57832;SDS011;43667;53.036;6.740;2023-05-14T11:36:45;5.05;;;2.45;;
57832;SDS011;43667;53.036;6.740;2023-05-14T11:39:16;4.93;;;2.17;;
57832;SDS011;43667;53.036;6.740;2023-05-14T11:41:43;5.07;;;2.40;;
57832;SDS011;43667;53.036;6.740;2023-05-14T11:44:10;5.50;;;2.30;;
57832;SDS011;43667;53.036;6.740;2023-05-14T11:46:36;7.28;;;2.15;;
57832;SDS011;43667;53.036;6.740;2023-05-14T11:49:05;5.97;;;2.28;;
57832;SDS011;43667;53.036;6.740;2023-05-14T11:51:31;4.03;;;2.10;;
57832;SDS011;43667;53.036;6.740;2023-05-14T11:53:57;6.40;;;2.30;;
57832;SDS011;43667;53.036;6.740;2023-05-14T11:56:23;12.88;;;2.42;;
57832;SDS011;43667;53.036;6.740;2023-05-14T11:58:54;4.45;;;2.22;;
57832;SDS011;43667;53.036;6.740;2023-05-14T12:01:22;6.25;;;2.35;;
57832;SDS011;43667;53.036;6.740;2023-05-14T12:03:48;5.13;;;2.20;;
57832;SDS011;43667;53.036;6.740;2023-05-14T12:06:15;9.02;;;2.85;;
57832;SDS011;43667;53.036;6.740;2023-05-14T12:08:41;6.72;;;2.17;;
57832;SDS011;43667;53.036;6.740;2023-05-14T12:11:07;6.10;;;2.08;;
57832;SDS011;43667;53.036;6.740;2023-05-14T12:13:33;4.75;;;2.00;;
57832;SDS011;43667;53.036;6.740;2023-05-14T12:16:01;9.43;;;2.22;;
57832;SDS011;43667;53.036;6.740;2023-05-14T12:18:28;8.10;;;2.60;;
57832;SDS011;43667;53.036;6.740;2023-05-14T12:20:54;6.07;;;2.03;;
57832;SDS011;43667;53.036;6.740;2023-05-14T12:23:31;9.05;;;2.25;;
57832;SDS011;43667;53.036;6.740;2023-05-14T12:26:04;5.45;;;1.50;;
57832;SDS011;43667;53.036;6.740;2023-05-14T12:28:30;7.35;;;1.75;;
57832;SDS011;43667;53.036;6.740;2023-05-14T12:30:57;3.38;;;1.67;;
57832;SDS011;43667;53.036;6.740;2023-05-14T12:33:23;4.88;;;1.55;;
57832;SDS011;43667;53.036;6.740;2023-05-14T12:35:50;4.03;;;1.63;;
57832;SDS011;43667;53.036;6.740;2023-05-14T12:38:18;7.15;;;1.80;;
57832;SDS011;43667;53.036;6.740;2023-05-14T12:40:44;5.25;;;1.70;;
57832;SDS011;43667;53.036;6.740;2023-05-14T12:43:10;7.95;;;2.00;;
57832;SDS011;43667;53.036;6.740;2023-05-14T12:45:36;3.80;;;1.63;;
57832;SDS011;43667;53.036;6.740;2023-05-14T12:48:02;2.22;;;1.60;;
57832;SDS011;43667;53.036;6.740;2023-05-14T12:50:28;5.00;;;1.67;;
57832;SDS011;43667;53.036;6.740;2023-05-14T12:52:54;4.10;;;2.00;;
57832;SDS011;43667;53.036;6.740;2023-05-14T12:55:20;5.00;;;1.77;;
57832;SDS011;43667;53.036;6.740;2023-05-14T12:57:49;4.00;;;1.48;;
57832;SDS011;43667;53.036;6.740;2023-05-14T13:00:15;4.60;;;1.90;;
57832;SDS011;43667;53.036;6.740;2023-05-14T13:02:41;5.03;;;1.67;;
57832;SDS011;43667;53.036;6.740;2023-05-14T13:05:07;5.80;;;1.95;;
57832;SDS011;43667;53.036;6.740;2023-05-14T13:07:33;4.60;;;1.58;;
57832;SDS011;43667;53.036;6.740;2023-05-14T13:10:00;5.00;;;1.65;;
57832;SDS011;43667;53.036;6.740;2023-05-14T13:12:26;4.78;;;1.65;;
57832;SDS011;43667;53.036;6.740;2023-05-14T13:14:53;8.45;;;2.65;;
57832;SDS011;43667;53.036;6.740;2023-05-14T13:17:19;5.95;;;1.88;;
57832;SDS011;43667;53.036;6.740;2023-05-14T13:19:45;4.75;;;1.90;;
57832;SDS011;43667;53.036;6.740;2023-05-14T13:22:11;5.32;;;1.90;;
57832;SDS011;43667;53.036;6.740;2023-05-14T13:24:38;7.95;;;2.00;;
57832;SDS011;43667;53.036;6.740;2023-05-14T13:27:04;5.05;;;1.70;;
57832;SDS011;43667;53.036;6.740;2023-05-14T13:29:30;9.45;;;1.67;;
57832;SDS011;43667;53.036;6.740;2023-05-14T13:31:56;4.55;;;1.70;;
57832;SDS011;43667;53.036;6.740;2023-05-14T13:34:22;3.10;;;1.55;;
57832;SDS011;43667;53.036;6.740;2023-05-14T13:36:48;3.72;;;2.10;;
57832;SDS011;43667;53.036;6.740;2023-05-14T13:39:14;5.57;;;2.17;;
57832;SDS011;43667;53.036;6.740;2023-05-14T13:41:40;5.35;;;1.90;;
57832;SDS011;43667;53.036;6.740;2023-05-14T13:44:06;3.80;;;1.90;;
57832;SDS011;43667;53.036;6.740;2023-05-14T13:46:32;5.25;;;1.63;;
57832;SDS011;43667;53.036;6.740;2023-05-14T13:48:58;2.47;;;1.63;;
57832;SDS011;43667;53.036;6.740;2023-05-14T13:51:24;5.18;;;1.90;;
57832;SDS011;43667;53.036;6.740;2023-05-14T13:53:50;4.80;;;1.70;;
57832;SDS011;43667;53.036;6.740;2023-05-14T13:56:16;4.40;;;1.55;;
57832;SDS011;43667;53.036;6.740;2023-05-14T13:58:42;2.83;;;1.75;;
57832;SDS011;43667;53.036;6.740;2023-05-14T14:01:08;8.68;;;2.03;;
57832;SDS011;43667;53.036;6.740;2023-05-14T14:03:34;2.97;;;1.75;;
57832;SDS011;43667;53.036;6.740;2023-05-14T14:06:00;4.65;;;1.63;;
57832;SDS011;43667;53.036;6.740;2023-05-14T14:08:27;6.00;;;2.63;;
57832;SDS011;43667;53.036;6.740;2023-05-14T14:10:53;3.05;;;1.42;;
57832;SDS011;43667;53.036;6.740;2023-05-14T14:13:19;7.28;;;1.90;;
57832;SDS011;43667;53.036;6.740;2023-05-14T14:15:46;3.28;;;1.40;;
57832;SDS011;43667;53.036;6.740;2023-05-14T14:18:12;5.60;;;1.83;;
57832;SDS011;43667;53.036;6.740;2023-05-14T14:20:38;3.70;;;1.60;;
57832;SDS011;43667;53.036;6.740;2023-05-14T14:23:04;5.40;;;1.95;;
57832;SDS011;43667;53.036;6.740;2023-05-14T14:25:30;2.97;;;1.50;;
57832;SDS011;43667;53.036;6.740;2023-05-14T14:27:56;5.30;;;1.80;;
57832;SDS011;43667;53.036;6.740;2023-05-14T14:30:22;4.80;;;2.10;;
57832;SDS011;43667;53.036;6.740;2023-05-14T14:32:48;4.40;;;2.15;;
57832;SDS011;43667;53.036;6.740;2023-05-14T14:35:17;2.65;;;1.80;;
57832;SDS011;43667;53.036;6.740;2023-05-14T14:37:44;5.97;;;1.70;;